sensor_id;sensor_type;location;lat;lon;timestamp;P1;durP1;ratioP1;P2;durP2;ratioP2
6983;SDS011;3532;51.118;7.210;2023-01-08T00:00:22;2.00;;;1.87;;
6983;SDS011;3532;51.118;7.210;2023-01-08T00:02:47;2.40;;;2.20;;
6983;SDS011;3532;51.118;7.210;2023-01-08T00:05:13;2.43;;;2.20;;
6983;SDS011;3532;51.118;7.210;2023-01-08T00:07:39;2.97;;;2.50;;
6983;SDS011;3532;51.118;7.210;2023-01-08T00:10:04;2.43;;;2.23;;
6983;SDS011;3532;51.118;7.210;2023-01-08T00:12:30;2.50;;;2.30;;
6983;SDS011;3532;51.118;7.210;2023-01-08T00:14:55;2.30;;;2.10;;
6983;SDS011;3532;51.118;7.210;2023-01-08T00:17:21;2.60;;;2.40;;
6983;SDS011;3532;51.118;7.210;2023-01-08T00:19:46;2.87;;;2.23;;
6983;SDS011;3532;51.118;7.210;2023-01-08T00:22:11;2.60;;;2.40;;
6983;SDS011;3532;51.118;7.210;2023-01-08T00:24:36;2.50;;;2.30;;
6983;SDS011;3532;51.118;7.210;2023-01-08T00:27:02;2.50;;;2.30;;
6983;SDS011;3532;51.118;7.210;2023-01-08T00:29:27;2.30;;;2.10;;
6983;SDS011;3532;51.118;7.210;2023-01-08T00:31:53;2.07;;;1.80;;
6983;SDS011;3532;51.118;7.210;2023-01-08T00:34:18;3.43;;;2.10;;
6983;SDS011;3532;51.118;7.210;2023-01-08T00:36:43;2.63;;;2.23;;
6983;SDS011;3532;51.118;7.210;2023-01-08T00:39:09;2.20;;;2.00;;
6983;SDS011;3532;51.118;7.210;2023-01-08T00:41:34;2.40;;;2.20;;
6983;SDS011;3532;51.118;7.210;2023-01-08T00:43:59;2.50;;;2.30;;
6983;SDS011;3532;51.118;7.210;2023-01-08T00:46:25;2.30;;;2.10;;
6983;SDS011;3532;51.118;7.210;2023-01-08T00:48:50;2.53;;;2.00;;
6983;SDS011;3532;51.118;7.210;2023-01-08T00:51:15;1.97;;;1.87;;
6983;SDS011;3532;51.118;7.210;2023-01-08T00:53:40;2.23;;;2.07;;
6983;SDS011;3532;51.118;7.210;2023-01-08T00:56:07;2.07;;;1.90;;
6983;SDS011;3532;51.118;7.210;2023-01-08T00:58:33;4.43;;;2.33;;
6983;SDS011;3532;51.118;7.210;2023-01-08T01:00:58;2.07;;;1.87;;
6983;SDS011;3532;51.118;7.210;2023-01-08T01:03:24;2.80;;;2.03;;
6983;SDS011;3532;51.118;7.210;2023-01-08T01:05:49;2.13;;;2.03;;
6983;SDS011;3532;51.118;7.210;2023-01-08T01:08:14;2.60;;;2.20;;
6983;SDS011;3532;51.118;7.210;2023-01-08T01:10:40;2.20;;;2.03;;
6983;SDS011;3532;51.118;7.210;2023-01-08T01:13:05;2.50;;;2.20;;
6983;SDS011;3532;51.118;7.210;2023-01-08T01:15:31;2.10;;;1.90;;
6983;SDS011;3532;51.118;7.210;2023-01-08T01:17:56;2.67;;;2.37;;
6983;SDS011;3532;51.118;7.210;2023-01-08T01:20:21;2.40;;;2.20;;
6983;SDS011;3532;51.118;7.210;2023-01-08T01:22:47;3.20;;;2.90;;
6983;SDS011;3532;51.118;7.210;2023-01-08T01:25:13;2.40;;;2.23;;
6983;SDS011;3532;51.118;7.210;2023-01-08T01:27:39;2.37;;;2.17;;
6983;SDS011;3532;51.118;7.210;2023-01-08T01:30:04;3.13;;;2.47;;
6983;SDS011;3532;51.118;7.210;2023-01-08T01:32:30;3.07;;;2.27;;
6983;SDS011;3532;51.118;7.210;2023-01-08T01:34:56;3.23;;;2.03;;
6983;SDS011;3532;51.118;7.210;2023-01-08T01:37:21;2.70;;;2.20;;
6983;SDS011;3532;51.118;7.210;2023-01-08T01:39:46;2.43;;;2.23;;
6983;SDS011;3532;51.118;7.210;2023-01-08T01:42:15;2.37;;;2.17;;
6983;SDS011;3532;51.118;7.210;2023-01-08T01:45:00;2.40;;;1.90;;
6983;SDS011;3532;51.118;7.210;2023-01-08T01:50:17;2.43;;;2.23;;
6983;SDS011;3532;51.118;7.210;2023-01-08T01:53:07;3.30;;;2.70;;
6983;SDS011;3532;51.118;7.210;2023-01-08T01:55:33;3.07;;;2.53;;
6983;SDS011;3532;51.118;7.210;2023-01-08T01:58:09;2.63;;;2.43;;
6983;SDS011;3532;51.118;7.210;2023-01-08T02:00:36;2.50;;;2.30;;
6983;SDS011;3532;51.118;7.210;2023-01-08T02:03:02;2.50;;;2.30;;
6983;SDS011;3532;51.118;7.210;2023-01-08T02:05:32;2.27;;;2.10;;
6983;SDS011;3532;51.118;7.210;2023-01-08T02:11:10;3.20;;;2.10;;
6983;SDS011;3532;51.118;7.210;2023-01-08T02:13:38;2.60;;;2.30;;
6983;SDS011;3532;51.118;7.210;2023-01-08T02:19:05;3.13;;;2.80;;
6983;SDS011;3532;51.118;7.210;2023-01-08T02:21:51;3.67;;;3.10;;
6983;SDS011;3532;51.118;7.210;2023-01-08T02:26:54;2.87;;;2.67;;
6983;SDS011;3532;51.118;7.210;2023-01-08T02:29:22;4.77;;;3.40;;
6983;SDS011;3532;51.118;7.210;2023-01-08T02:31:49;3.57;;;2.97;;
6983;SDS011;3532;51.118;7.210;2023-01-08T02:34:15;3.33;;;3.03;;
6983;SDS011;3532;51.118;7.210;2023-01-08T02:36:47;3.33;;;3.03;;
6983;SDS011;3532;51.118;7.210;2023-01-08T02:47:33;3.20;;;2.87;;
6983;SDS011;3532;51.118;7.210;2023-01-08T02:50:07;4.17;;;2.63;;
6983;SDS011;3532;51.118;7.210;2023-01-08T02:52:40;4.20;;;3.60;;
6983;SDS011;3532;51.118;7.210;2023-01-08T02:55:09;3.83;;;3.33;;
6983;SDS011;3532;51.118;7.210;2023-01-08T02:57:35;3.90;;;3.60;;
6983;SDS011;3532;51.118;7.210;2023-01-08T03:00:00;3.80;;;3.40;;
6983;SDS011;3532;51.118;7.210;2023-01-08T03:02:26;4.80;;;3.70;;
6983;SDS011;3532;51.118;7.210;2023-01-08T03:04:53;3.77;;;3.47;;
6983;SDS011;3532;51.118;7.210;2023-01-08T03:07:24;4.07;;;3.73;;
6983;SDS011;3532;51.118;7.210;2023-01-08T03:09:49;4.03;;;3.63;;
6983;SDS011;3532;51.118;7.210;2023-01-08T03:12:15;4.03;;;3.63;;
6983;SDS011;3532;51.118;7.210;2023-01-08T03:14:49;4.03;;;3.63;;
6983;SDS011;3532;51.118;7.210;2023-01-08T03:17:19;5.90;;;3.87;;
6983;SDS011;3532;51.118;7.210;2023-01-08T03:19:49;3.53;;;3.20;;
6983;SDS011;3532;51.118;7.210;2023-01-08T03:22:18;4.30;;;3.73;;
6983;SDS011;3532;51.118;7.210;2023-01-08T03:24:45;5.43;;;3.80;;
6983;SDS011;3532;51.118;7.210;2023-01-08T03:27:13;4.40;;;3.60;;
6983;SDS011;3532;51.118;7.210;2023-01-08T03:29:41;4.47;;;3.97;;
6983;SDS011;3532;51.118;7.210;2023-01-08T03:32:11;8.00;;;3.93;;
6983;SDS011;3532;51.118;7.210;2023-01-08T03:34:38;4.00;;;3.70;;
6983;SDS011;3532;51.118;7.210;2023-01-08T03:37:05;4.40;;;4.00;;
6983;SDS011;3532;51.118;7.210;2023-01-08T03:42:08;9.87;;;4.33;;
6983;SDS011;3532;51.118;7.210;2023-01-08T03:44:36;4.90;;;4.50;;
6983;SDS011;3532;51.118;7.210;2023-01-08T03:47:01;6.17;;;4.80;;
6983;SDS011;3532;51.118;7.210;2023-01-08T03:49:27;4.40;;;4.00;;
6983;SDS011;3532;51.118;7.210;2023-01-08T03:51:53;5.57;;;4.97;;
6983;SDS011;3532;51.118;7.210;2023-01-08T03:54:20;4.23;;;3.83;;
6983;SDS011;3532;51.118;7.210;2023-01-08T03:56:48;5.20;;;4.70;;
6983;SDS011;3532;51.118;7.210;2023-01-08T03:59:13;6.07;;;4.97;;
6983;SDS011;3532;51.118;7.210;2023-01-08T04:01:39;4.00;;;3.60;;
6983;SDS011;3532;51.118;7.210;2023-01-08T04:04:04;6.10;;;3.70;;
6983;SDS011;3532;51.118;7.210;2023-01-08T04:06:30;6.33;;;3.90;;
6983;SDS011;3532;51.118;7.210;2023-01-08T04:08:55;5.37;;;4.47;;
6983;SDS011;3532;51.118;7.210;2023-01-08T04:11:21;3.50;;;3.17;;
6983;SDS011;3532;51.118;7.210;2023-01-08T04:13:46;3.67;;;3.37;;
6983;SDS011;3532;51.118;7.210;2023-01-08T04:16:12;3.97;;;3.30;;
6983;SDS011;3532;51.118;7.210;2023-01-08T04:18:37;3.00;;;2.70;;
6983;SDS011;3532;51.118;7.210;2023-01-08T04:21:02;3.43;;;2.70;;
6983;SDS011;3532;51.118;7.210;2023-01-08T04:23:27;3.20;;;2.90;;
6983;SDS011;3532;51.118;7.210;2023-01-08T04:25:53;3.30;;;2.90;;
6983;SDS011;3532;51.118;7.210;2023-01-08T04:28:19;3.23;;;2.93;;
6983;SDS011;3532;51.118;7.210;2023-01-08T04:30:44;3.00;;;2.70;;
6983;SDS011;3532;51.118;7.210;2023-01-08T04:33:10;4.73;;;3.13;;
6983;SDS011;3532;51.118;7.210;2023-01-08T04:35:35;3.80;;;3.13;;
6983;SDS011;3532;51.118;7.210;2023-01-08T04:38:01;3.80;;;2.60;;
6983;SDS011;3532;51.118;7.210;2023-01-08T04:40:26;3.37;;;2.97;;
6983;SDS011;3532;51.118;7.210;2023-01-08T04:42:51;3.70;;;3.40;;
6983;SDS011;3532;51.118;7.210;2023-01-08T04:45:17;5.93;;;3.10;;
6983;SDS011;3532;51.118;7.210;2023-01-08T04:47:42;3.43;;;3.13;;
6983;SDS011;3532;51.118;7.210;2023-01-08T04:50:07;4.27;;;3.30;;
6983;SDS011;3532;51.118;7.210;2023-01-08T04:52:33;4.10;;;3.47;;
6983;SDS011;3532;51.118;7.210;2023-01-08T04:54:58;3.60;;;3.30;;
6983;SDS011;3532;51.118;7.210;2023-01-08T04:57:24;4.20;;;3.80;;
6983;SDS011;3532;51.118;7.210;2023-01-08T04:59:49;3.30;;;3.00;;
6983;SDS011;3532;51.118;7.210;2023-01-08T05:02:14;3.67;;;3.20;;
6983;SDS011;3532;51.118;7.210;2023-01-08T05:04:40;3.80;;;3.00;;
6983;SDS011;3532;51.118;7.210;2023-01-08T05:07:05;4.47;;;2.50;;
6983;SDS011;3532;51.118;7.210;2023-01-08T05:09:31;4.20;;;3.67;;
6983;SDS011;3532;51.118;7.210;2023-01-08T05:11:57;3.17;;;2.87;;
6983;SDS011;3532;51.118;7.210;2023-01-08T05:14:22;3.00;;;2.70;;
6983;SDS011;3532;51.118;7.210;2023-01-08T05:16:47;3.30;;;3.00;;
6983;SDS011;3532;51.118;7.210;2023-01-08T05:19:13;2.83;;;2.63;;
6983;SDS011;3532;51.118;7.210;2023-01-08T05:21:38;3.00;;;2.50;;
6983;SDS011;3532;51.118;7.210;2023-01-08T05:24:03;2.80;;;2.60;;
6983;SDS011;3532;51.118;7.210;2023-01-08T05:26:29;3.27;;;2.57;;
6983;SDS011;3532;51.118;7.210;2023-01-08T05:28:54;3.13;;;2.40;;
6983;SDS011;3532;51.118;7.210;2023-01-08T05:31:19;3.10;;;2.80;;
6983;SDS011;3532;51.118;7.210;2023-01-08T05:33:45;2.40;;;2.20;;
6983;SDS011;3532;51.118;7.210;2023-01-08T05:36:11;5.23;;;2.73;;
6983;SDS011;3532;51.118;7.210;2023-01-08T05:38:37;2.33;;;2.13;;
6983;SDS011;3532;51.118;7.210;2023-01-08T05:41:03;2.90;;;2.70;;
6983;SDS011;3532;51.118;7.210;2023-01-08T05:43:29;2.47;;;2.27;;
6983;SDS011;3532;51.118;7.210;2023-01-08T05:45:58;6.07;;;2.50;;
6983;SDS011;3532;51.118;7.210;2023-01-08T05:48:24;3.03;;;2.30;;
6983;SDS011;3532;51.118;7.210;2023-01-08T05:50:51;2.23;;;2.03;;
6983;SDS011;3532;51.118;7.210;2023-01-08T05:53:16;2.60;;;2.40;;
6983;SDS011;3532;51.118;7.210;2023-01-08T05:55:41;2.10;;;1.90;;
6983;SDS011;3532;51.118;7.210;2023-01-08T05:58:07;2.40;;;2.20;;
6983;SDS011;3532;51.118;7.210;2023-01-08T06:00:32;2.83;;;2.17;;
6983;SDS011;3532;51.118;7.210;2023-01-08T06:02:58;2.47;;;2.10;;
6983;SDS011;3532;51.118;7.210;2023-01-08T06:05:23;2.67;;;2.43;;
6983;SDS011;3532;51.118;7.210;2023-01-08T06:07:49;2.73;;;2.13;;
6983;SDS011;3532;51.118;7.210;2023-01-08T06:10:14;1.90;;;1.80;;
6983;SDS011;3532;51.118;7.210;2023-01-08T06:12:39;2.07;;;1.97;;
6983;SDS011;3532;51.118;7.210;2023-01-08T06:15:05;1.90;;;1.80;;
6983;SDS011;3532;51.118;7.210;2023-01-08T06:17:31;2.10;;;2.00;;
6983;SDS011;3532;51.118;7.210;2023-01-08T06:19:56;2.53;;;2.00;;
6983;SDS011;3532;51.118;7.210;2023-01-08T06:22:22;2.07;;;1.90;;
6983;SDS011;3532;51.118;7.210;2023-01-08T06:24:47;2.10;;;1.97;;
6983;SDS011;3532;51.118;7.210;2023-01-08T06:27:12;2.67;;;2.47;;
6983;SDS011;3532;51.118;7.210;2023-01-08T06:29:37;2.40;;;2.20;;
6983;SDS011;3532;51.118;7.210;2023-01-08T06:32:03;2.40;;;2.20;;
6983;SDS011;3532;51.118;7.210;2023-01-08T06:34:28;2.13;;;1.80;;
6983;SDS011;3532;51.118;7.210;2023-01-08T06:36:54;1.80;;;1.70;;
6983;SDS011;3532;51.118;7.210;2023-01-08T06:39:19;1.60;;;1.50;;
6983;SDS011;3532;51.118;7.210;2023-01-08T06:41:44;2.00;;;1.90;;
6983;SDS011;3532;51.118;7.210;2023-01-08T06:44:09;2.20;;;1.80;;
6983;SDS011;3532;51.118;7.210;2023-01-08T06:46:35;1.80;;;1.70;;
6983;SDS011;3532;51.118;7.210;2023-01-08T06:49:07;1.70;;;1.50;;
6983;SDS011;3532;51.118;7.210;2023-01-08T06:51:33;2.10;;;1.90;;
6983;SDS011;3532;51.118;7.210;2023-01-08T06:53:59;1.80;;;1.70;;
6983;SDS011;3532;51.118;7.210;2023-01-08T06:56:24;2.37;;;1.73;;
6983;SDS011;3532;51.118;7.210;2023-01-08T06:58:49;1.93;;;1.80;;
6983;SDS011;3532;51.118;7.210;2023-01-08T07:01:15;1.73;;;1.63;;
6983;SDS011;3532;51.118;7.210;2023-01-08T07:03:41;2.23;;;1.80;;
6983;SDS011;3532;51.118;7.210;2023-01-08T07:06:11;1.73;;;1.63;;
6983;SDS011;3532;51.118;7.210;2023-01-08T07:08:38;1.90;;;1.70;;
6983;SDS011;3532;51.118;7.210;2023-01-08T07:11:04;1.67;;;1.57;;
6983;SDS011;3532;51.118;7.210;2023-01-08T07:13:29;1.67;;;1.57;;
6983;SDS011;3532;51.118;7.210;2023-01-08T07:15:54;1.90;;;1.63;;
6983;SDS011;3532;51.118;7.210;2023-01-08T07:18:20;1.80;;;1.60;;
6983;SDS011;3532;51.118;7.210;2023-01-08T07:20:46;2.30;;;2.10;;
6983;SDS011;3532;51.118;7.210;2023-01-08T07:23:12;1.53;;;1.40;;
6983;SDS011;3532;51.118;7.210;2023-01-08T07:25:38;3.20;;;1.83;;
6983;SDS011;3532;51.118;7.210;2023-01-08T07:28:03;2.40;;;1.70;;
6983;SDS011;3532;51.118;7.210;2023-01-08T07:30:28;2.40;;;1.57;;
6983;SDS011;3532;51.118;7.210;2023-01-08T07:32:56;1.20;;;1.20;;
6983;SDS011;3532;51.118;7.210;2023-01-08T07:35:23;3.27;;;1.53;;
6983;SDS011;3532;51.118;7.210;2023-01-08T07:37:48;2.70;;;1.50;;
6983;SDS011;3532;51.118;7.210;2023-01-08T07:40:13;1.60;;;1.50;;
6983;SDS011;3532;51.118;7.210;2023-01-08T07:42:39;1.57;;;1.40;;
6983;SDS011;3532;51.118;7.210;2023-01-08T07:45:04;1.47;;;1.30;;
6983;SDS011;3532;51.118;7.210;2023-01-08T07:47:30;2.10;;;1.87;;
6983;SDS011;3532;51.118;7.210;2023-01-08T07:49:55;2.13;;;1.60;;
6983;SDS011;3532;51.118;7.210;2023-01-08T07:52:20;1.77;;;1.63;;
6983;SDS011;3532;51.118;7.210;2023-01-08T07:54:46;1.83;;;1.73;;
6983;SDS011;3532;51.118;7.210;2023-01-08T07:57:11;3.10;;;1.70;;
6983;SDS011;3532;51.118;7.210;2023-01-08T07:59:36;1.50;;;1.40;;
6983;SDS011;3532;51.118;7.210;2023-01-08T08:02:01;1.60;;;1.33;;
6983;SDS011;3532;51.118;7.210;2023-01-08T08:04:27;1.77;;;1.60;;
6983;SDS011;3532;51.118;7.210;2023-01-08T08:06:52;4.33;;;2.10;;
6983;SDS011;3532;51.118;7.210;2023-01-08T08:09:18;1.47;;;1.30;;
6983;SDS011;3532;51.118;7.210;2023-01-08T08:11:43;3.57;;;1.40;;
6983;SDS011;3532;51.118;7.210;2023-01-08T08:14:09;2.83;;;2.37;;
6983;SDS011;3532;51.118;7.210;2023-01-08T08:16:34;4.10;;;1.70;;
6983;SDS011;3532;51.118;7.210;2023-01-08T08:18:59;2.53;;;1.47;;
6983;SDS011;3532;51.118;7.210;2023-01-08T08:21:25;2.00;;;1.80;;
6983;SDS011;3532;51.118;7.210;2023-01-08T08:23:50;3.80;;;1.80;;
6983;SDS011;3532;51.118;7.210;2023-01-08T08:26:15;2.10;;;1.53;;
6983;SDS011;3532;51.118;7.210;2023-01-08T08:28:41;2.60;;;1.70;;
6983;SDS011;3532;51.118;7.210;2023-01-08T08:31:06;3.00;;;1.40;;
6983;SDS011;3532;51.118;7.210;2023-01-08T08:33:32;4.60;;;1.90;;
6983;SDS011;3532;51.118;7.210;2023-01-08T08:35:57;2.47;;;1.60;;
6983;SDS011;3532;51.118;7.210;2023-01-08T08:38:22;2.07;;;1.43;;
6983;SDS011;3532;51.118;7.210;2023-01-08T08:40:49;3.20;;;1.73;;
6983;SDS011;3532;51.118;7.210;2023-01-08T08:43:14;3.07;;;1.77;;
6983;SDS011;3532;51.118;7.210;2023-01-08T08:45:39;4.93;;;2.07;;
6983;SDS011;3532;51.118;7.210;2023-01-08T08:48:05;4.60;;;2.03;;
6983;SDS011;3532;51.118;7.210;2023-01-08T08:50:31;4.03;;;1.90;;
6983;SDS011;3532;51.118;7.210;2023-01-08T08:53:00;4.30;;;2.00;;
6983;SDS011;3532;51.118;7.210;2023-01-08T08:55:26;2.23;;;1.80;;
6983;SDS011;3532;51.118;7.210;2023-01-08T08:57:51;2.70;;;1.70;;
6983;SDS011;3532;51.118;7.210;2023-01-08T09:00:17;8.97;;;2.63;;
6983;SDS011;3532;51.118;7.210;2023-01-08T09:02:42;2.90;;;2.00;;
6983;SDS011;3532;51.118;7.210;2023-01-08T09:05:08;8.37;;;2.60;;
6983;SDS011;3532;51.118;7.210;2023-01-08T09:07:34;2.33;;;1.60;;
6983;SDS011;3532;51.118;7.210;2023-01-08T09:09:59;3.43;;;2.07;;
6983;SDS011;3532;51.118;7.210;2023-01-08T09:12:25;2.63;;;2.00;;
6983;SDS011;3532;51.118;7.210;2023-01-08T09:14:50;3.10;;;1.73;;
6983;SDS011;3532;51.118;7.210;2023-01-08T09:17:15;2.80;;;1.90;;
6983;SDS011;3532;51.118;7.210;2023-01-08T09:19:41;1.70;;;1.60;;
6983;SDS011;3532;51.118;7.210;2023-01-08T09:22:06;3.20;;;1.93;;
6983;SDS011;3532;51.118;7.210;2023-01-08T09:24:31;13.43;;;2.27;;
6983;SDS011;3532;51.118;7.210;2023-01-08T09:26:57;5.07;;;2.10;;
6983;SDS011;3532;51.118;7.210;2023-01-08T09:29:22;2.90;;;2.17;;
6983;SDS011;3532;51.118;7.210;2023-01-08T09:31:48;6.80;;;2.43;;
6983;SDS011;3532;51.118;7.210;2023-01-08T09:34:13;3.27;;;2.13;;
6983;SDS011;3532;51.118;7.210;2023-01-08T09:36:39;2.80;;;2.40;;
6983;SDS011;3532;51.118;7.210;2023-01-08T09:39:04;4.73;;;2.00;;
6983;SDS011;3532;51.118;7.210;2023-01-08T09:41:30;4.87;;;2.33;;
6983;SDS011;3532;51.118;7.210;2023-01-08T09:43:59;3.33;;;2.20;;
6983;SDS011;3532;51.118;7.210;2023-01-08T09:46:26;4.10;;;1.97;;
6983;SDS011;3532;51.118;7.210;2023-01-08T09:48:52;3.10;;;2.63;;
6983;SDS011;3532;51.118;7.210;2023-01-08T09:51:19;2.10;;;1.90;;
6983;SDS011;3532;51.118;7.210;2023-01-08T09:53:45;5.60;;;2.00;;
6983;SDS011;3532;51.118;7.210;2023-01-08T09:56:15;2.20;;;1.90;;
6983;SDS011;3532;51.118;7.210;2023-01-08T09:58:45;2.97;;;1.93;;
6983;SDS011;3532;51.118;7.210;2023-01-08T10:01:14;2.23;;;1.80;;
6983;SDS011;3532;51.118;7.210;2023-01-08T10:03:42;3.37;;;1.73;;
6983;SDS011;3532;51.118;7.210;2023-01-08T10:06:10;1.53;;;1.40;;
6983;SDS011;3532;51.118;7.210;2023-01-08T10:08:36;2.43;;;1.70;;
6983;SDS011;3532;51.118;7.210;2023-01-08T10:11:03;4.37;;;2.00;;
6983;SDS011;3532;51.118;7.210;2023-01-08T10:13:28;2.90;;;1.60;;
6983;SDS011;3532;51.118;7.210;2023-01-08T10:15:54;4.70;;;2.00;;
6983;SDS011;3532;51.118;7.210;2023-01-08T10:18:19;3.23;;;1.90;;
6983;SDS011;3532;51.118;7.210;2023-01-08T10:20:47;3.47;;;1.90;;
6983;SDS011;3532;51.118;7.210;2023-01-08T10:25:46;1.90;;;1.70;;
6983;SDS011;3532;51.118;7.210;2023-01-08T10:28:26;2.33;;;1.70;;
6983;SDS011;3532;51.118;7.210;2023-01-08T10:30:53;3.10;;;1.50;;
6983;SDS011;3532;51.118;7.210;2023-01-08T10:33:24;2.53;;;2.00;;
6983;SDS011;3532;51.118;7.210;2023-01-08T10:35:56;2.57;;;1.80;;
6983;SDS011;3532;51.118;7.210;2023-01-08T10:38:29;3.93;;;2.10;;
6983;SDS011;3532;51.118;7.210;2023-01-08T10:40:55;5.00;;;2.23;;
6983;SDS011;3532;51.118;7.210;2023-01-08T10:43:34;2.73;;;2.20;;
6983;SDS011;3532;51.118;7.210;2023-01-08T10:46:06;4.07;;;2.07;;
6983;SDS011;3532;51.118;7.210;2023-01-08T10:48:43;3.13;;;2.40;;
6983;SDS011;3532;51.118;7.210;2023-01-08T10:51:14;3.33;;;2.43;;
6983;SDS011;3532;51.118;7.210;2023-01-08T10:53:41;2.07;;;1.97;;
6983;SDS011;3532;51.118;7.210;2023-01-08T10:56:16;2.50;;;2.20;;
6983;SDS011;3532;51.118;7.210;2023-01-08T10:58:46;4.70;;;2.27;;
6983;SDS011;3532;51.118;7.210;2023-01-08T11:01:15;4.47;;;2.47;;
6983;SDS011;3532;51.118;7.210;2023-01-08T11:03:47;2.50;;;1.90;;
6983;SDS011;3532;51.118;7.210;2023-01-08T11:06:21;6.03;;;2.50;;
6983;SDS011;3532;51.118;7.210;2023-01-08T11:08:48;2.80;;;1.90;;
6983;SDS011;3532;51.118;7.210;2023-01-08T11:11:14;2.77;;;1.83;;
6983;SDS011;3532;51.118;7.210;2023-01-08T11:13:46;2.43;;;1.93;;
6983;SDS011;3532;51.118;7.210;2023-01-08T11:16:20;3.47;;;2.07;;
6983;SDS011;3532;51.118;7.210;2023-01-08T11:18:47;2.43;;;1.93;;
6983;SDS011;3532;51.118;7.210;2023-01-08T11:21:27;4.83;;;2.17;;
6983;SDS011;3532;51.118;7.210;2023-01-08T11:26:45;2.40;;;1.80;;
6983;SDS011;3532;51.118;7.210;2023-01-08T11:29:45;2.27;;;1.90;;
6983;SDS011;3532;51.118;7.210;2023-01-08T11:32:32;2.57;;;1.97;;
6983;SDS011;3532;51.118;7.210;2023-01-08T11:35:18;4.33;;;2.23;;
6983;SDS011;3532;51.118;7.210;2023-01-08T11:38:05;1.77;;;1.63;;
6983;SDS011;3532;51.118;7.210;2023-01-08T11:54:25;1.97;;;1.67;;
6983;SDS011;3532;51.118;7.210;2023-01-08T11:57:05;3.80;;;2.00;;
6983;SDS011;3532;51.118;7.210;2023-01-08T11:59:58;1.83;;;1.53;;
6983;SDS011;3532;51.118;7.210;2023-01-08T12:02:52;2.43;;;1.97;;
6983;SDS011;3532;51.118;7.210;2023-01-08T12:08:02;2.60;;;2.30;;
6983;SDS011;3532;51.118;7.210;2023-01-08T12:21:15;10.17;;;4.33;;
6983;SDS011;3532;51.118;7.210;2023-01-08T12:23:48;6.40;;;3.50;;
6983;SDS011;3532;51.118;7.210;2023-01-08T12:26:30;6.27;;;3.20;;
6983;SDS011;3532;51.118;7.210;2023-01-08T12:29:07;2.70;;;2.20;;
6983;SDS011;3532;51.118;7.210;2023-01-08T12:31:59;3.77;;;2.50;;
6983;SDS011;3532;51.118;7.210;2023-01-08T12:34:44;3.37;;;2.00;;
6983;SDS011;3532;51.118;7.210;2023-01-08T12:37:56;2.57;;;1.93;;
6983;SDS011;3532;51.118;7.210;2023-01-08T12:40:12;2.37;;;1.70;;
6983;SDS011;3532;51.118;7.210;2023-01-08T12:42:39;1.80;;;1.70;;
6983;SDS011;3532;51.118;7.210;2023-01-08T12:45:06;2.33;;;1.87;;
6983;SDS011;3532;51.118;7.210;2023-01-08T12:47:40;2.83;;;1.70;;
6983;SDS011;3532;51.118;7.210;2023-01-08T12:50:23;2.20;;;2.00;;
6983;SDS011;3532;51.118;7.210;2023-01-08T12:52:51;3.33;;;2.20;;
6983;SDS011;3532;51.118;7.210;2023-01-08T12:55:25;2.77;;;2.10;;
6983;SDS011;3532;51.118;7.210;2023-01-08T12:57:56;2.13;;;1.93;;
6983;SDS011;3532;51.118;7.210;2023-01-08T13:01:20;2.33;;;1.90;;
6983;SDS011;3532;51.118;7.210;2023-01-08T13:03:40;1.80;;;1.70;;
6983;SDS011;3532;51.118;7.210;2023-01-08T13:06:10;2.07;;;1.40;;
6983;SDS011;3532;51.118;7.210;2023-01-08T13:08:38;2.63;;;1.40;;
6983;SDS011;3532;51.118;7.210;2023-01-08T13:11:04;1.70;;;1.43;;
6983;SDS011;3532;51.118;7.210;2023-01-08T13:13:35;2.00;;;1.63;;
6983;SDS011;3532;51.118;7.210;2023-01-08T13:18:34;1.70;;;1.60;;
6983;SDS011;3532;51.118;7.210;2023-01-08T13:21:01;3.57;;;1.73;;
6983;SDS011;3532;51.118;7.210;2023-01-08T13:23:28;2.10;;;1.63;;
6983;SDS011;3532;51.118;7.210;2023-01-08T13:25:59;1.53;;;1.43;;
6983;SDS011;3532;51.118;7.210;2023-01-08T13:28:38;2.37;;;1.50;;
6983;SDS011;3532;51.118;7.210;2023-01-08T13:31:23;1.80;;;1.40;;
6983;SDS011;3532;51.118;7.210;2023-01-08T13:33:51;3.50;;;1.60;;
6983;SDS011;3532;51.118;7.210;2023-01-08T13:38:43;1.30;;;1.20;;
6983;SDS011;3532;51.118;7.210;2023-01-08T13:46:37;3.70;;;1.67;;
6983;SDS011;3532;51.118;7.210;2023-01-08T13:49:05;1.43;;;1.33;;
6983;SDS011;3532;51.118;7.210;2023-01-08T13:54:22;1.23;;;1.13;;
6983;SDS011;3532;51.118;7.210;2023-01-08T13:56:53;1.40;;;1.27;;
6983;SDS011;3532;51.118;7.210;2023-01-08T13:59:26;1.50;;;1.30;;
6983;SDS011;3532;51.118;7.210;2023-01-08T14:01:55;1.63;;;1.53;;
6983;SDS011;3532;51.118;7.210;2023-01-08T14:04:22;1.40;;;1.30;;
6983;SDS011;3532;51.118;7.210;2023-01-08T14:06:48;1.50;;;1.40;;
6983;SDS011;3532;51.118;7.210;2023-01-08T14:09:32;1.47;;;1.23;;
6983;SDS011;3532;51.118;7.210;2023-01-08T14:11:57;3.70;;;1.47;;
6983;SDS011;3532;51.118;7.210;2023-01-08T14:14:23;1.57;;;1.47;;
6983;SDS011;3532;51.118;7.210;2023-01-08T14:16:49;1.30;;;1.20;;
6983;SDS011;3532;51.118;7.210;2023-01-08T14:19:16;1.67;;;1.57;;
6983;SDS011;3532;51.118;7.210;2023-01-08T14:21:45;1.37;;;1.27;;
6983;SDS011;3532;51.118;7.210;2023-01-08T14:24:13;2.83;;;2.00;;
6983;SDS011;3532;51.118;7.210;2023-01-08T14:26:40;3.63;;;1.87;;
6983;SDS011;3532;51.118;7.210;2023-01-08T14:29:14;3.17;;;2.20;;
6983;SDS011;3532;51.118;7.210;2023-01-08T14:31:50;1.97;;;1.80;;
6983;SDS011;3532;51.118;7.210;2023-01-08T14:34:20;1.73;;;1.63;;
6983;SDS011;3532;51.118;7.210;2023-01-08T14:36:48;2.47;;;2.00;;
6983;SDS011;3532;51.118;7.210;2023-01-08T14:39:22;2.47;;;1.87;;
6983;SDS011;3532;51.118;7.210;2023-01-08T14:41:49;1.50;;;1.33;;
6983;SDS011;3532;51.118;7.210;2023-01-08T14:44:34;1.80;;;1.60;;
6983;SDS011;3532;51.118;7.210;2023-01-08T14:46:59;2.07;;;1.87;;
6983;SDS011;3532;51.118;7.210;2023-01-08T14:49:26;5.03;;;1.80;;
6983;SDS011;3532;51.118;7.210;2023-01-08T14:51:53;1.50;;;1.40;;
6983;SDS011;3532;51.118;7.210;2023-01-08T14:54:20;2.30;;;1.40;;
6983;SDS011;3532;51.118;7.210;2023-01-08T14:56:48;1.47;;;1.37;;
6983;SDS011;3532;51.118;7.210;2023-01-08T14:59:16;1.63;;;1.50;;
6983;SDS011;3532;51.118;7.210;2023-01-08T15:01:43;2.53;;;1.83;;
6983;SDS011;3532;51.118;7.210;2023-01-08T15:04:16;1.43;;;1.30;;
6983;SDS011;3532;51.118;7.210;2023-01-08T15:06:43;1.93;;;1.60;;
6983;SDS011;3532;51.118;7.210;2023-01-08T15:09:22;1.93;;;1.40;;
6983;SDS011;3532;51.118;7.210;2023-01-08T15:11:56;3.77;;;1.73;;
6983;SDS011;3532;51.118;7.210;2023-01-08T15:14:23;3.17;;;1.60;;
6983;SDS011;3532;51.118;7.210;2023-01-08T15:16:51;1.83;;;1.60;;
6983;SDS011;3532;51.118;7.210;2023-01-08T15:19:21;1.60;;;1.50;;
6983;SDS011;3532;51.118;7.210;2023-01-08T15:21:49;1.60;;;1.50;;
6983;SDS011;3532;51.118;7.210;2023-01-08T15:24:35;1.80;;;1.70;;
6983;SDS011;3532;51.118;7.210;2023-01-08T15:27:03;1.90;;;1.70;;
6983;SDS011;3532;51.118;7.210;2023-01-08T15:29:38;2.03;;;1.60;;
6983;SDS011;3532;51.118;7.210;2023-01-08T15:32:19;1.60;;;1.50;;
6983;SDS011;3532;51.118;7.210;2023-01-08T15:34:45;1.90;;;1.57;;
6983;SDS011;3532;51.118;7.210;2023-01-08T15:37:11;1.60;;;1.50;;
6983;SDS011;3532;51.118;7.210;2023-01-08T15:39:37;2.97;;;1.53;;
6983;SDS011;3532;51.118;7.210;2023-01-08T15:42:19;1.60;;;1.23;;
6983;SDS011;3532;51.118;7.210;2023-01-08T15:45:03;2.30;;;1.77;;
6983;SDS011;3532;51.118;7.210;2023-01-08T15:47:29;1.57;;;1.47;;
6983;SDS011;3532;51.118;7.210;2023-01-08T15:49:55;3.50;;;1.87;;
6983;SDS011;3532;51.118;7.210;2023-01-08T15:52:21;3.53;;;1.30;;
6983;SDS011;3532;51.118;7.210;2023-01-08T15:54:48;1.87;;;1.67;;
6983;SDS011;3532;51.118;7.210;2023-01-08T15:57:14;3.97;;;1.70;;
6983;SDS011;3532;51.118;7.210;2023-01-08T15:59:39;2.10;;;1.40;;
6983;SDS011;3532;51.118;7.210;2023-01-08T16:02:04;2.07;;;1.77;;
6983;SDS011;3532;51.118;7.210;2023-01-08T16:04:30;2.30;;;1.77;;
6983;SDS011;3532;51.118;7.210;2023-01-08T16:06:55;2.67;;;1.63;;
6983;SDS011;3532;51.118;7.210;2023-01-08T16:09:20;2.17;;;1.70;;
6983;SDS011;3532;51.118;7.210;2023-01-08T16:11:46;2.27;;;1.23;;
6983;SDS011;3532;51.118;7.210;2023-01-08T16:14:11;2.77;;;1.80;;
6983;SDS011;3532;51.118;7.210;2023-01-08T16:16:36;1.70;;;1.60;;
6983;SDS011;3532;51.118;7.210;2023-01-08T16:19:02;1.67;;;1.40;;
6983;SDS011;3532;51.118;7.210;2023-01-08T16:21:27;2.07;;;1.90;;
6983;SDS011;3532;51.118;7.210;2023-01-08T16:23:52;1.67;;;1.57;;
6983;SDS011;3532;51.118;7.210;2023-01-08T16:26:17;1.33;;;1.20;;
6983;SDS011;3532;51.118;7.210;2023-01-08T16:28:43;1.40;;;1.30;;